sensor_id;sensor_type;location;lat;lon;timestamp;pressure;altitude;pressure_sealevel;temperature;humidity
56272;BME280;42177;48.914;18.160;2023-02-14T00:03:11;1003.3;;;5.3;100
56272;BME280;42177;48.914;18.160;2023-02-14T00:08:10;1003.3;;;5.3;100
56272;BME280;42177;48.914;18.160;2023-02-14T00:13:10;1003.4;;;5.5;100
56272;BME280;42177;48.914;18.160;2023-02-14T00:18:10;1003.4;;;5.5;100
56272;BME280;42177;48.914;18.160;2023-02-14T00:23:10;1003.5;;;5.5;99.6
56272;BME280;42177;48.914;18.160;2023-02-14T00:28:10;1003.5;;;5.5;99.6
56272;BME280;42177;48.914;18.160;2023-02-14T00:33:10;1003.3;;;5.2;100
56272;BME280;42177;48.914;18.160;2023-02-14T00:38:10;1003.3;;;5.2;100
56272;BME280;42177;48.914;18.160;2023-02-14T00:43:10;1003.3;;;5.3;100
56272;BME280;42177;48.914;18.160;2023-02-14T00:48:10;1003.3;;;5.3;100
56272;BME280;42177;48.914;18.160;2023-02-14T00:53:10;1003.2;;;5.3;100
56272;BME280;42177;48.914;18.160;2023-02-14T00:58:10;1003.2;;;5.3;100
56272;BME280;42177;48.914;18.160;2023-02-14T01:03:10;1003.2;;;5.3;100
56272;BME280;42177;48.914;18.160;2023-02-14T01:08:10;1003.2;;;5.3;100
56272;BME280;42177;48.914;18.160;2023-02-14T01:13:11;1003.2;;;5.3;100
56272;BME280;42177;48.914;18.160;2023-02-14T01:18:10;1003.2;;;5.3;100
56272;BME280;42177;48.914;18.160;2023-02-14T01:23:11;1003.1;;;5.5;100
56272;BME280;42177;48.914;18.160;2023-02-14T01:28:10;1003.1;;;5.5;100
56272;BME280;42177;48.914;18.160;2023-02-14T01:33:10;1003;;;5.5;100
56272;BME280;42177;48.914;18.160;2023-02-14T01:38:10;1003;;;5.5;100
56272;BME280;42177;48.914;18.160;2023-02-14T01:43:12;1002.9;;;5.8;100
56272;BME280;42177;48.914;18.160;2023-02-14T01:48:10;1002.9;;;5.8;100
56272;BME280;42177;48.914;18.160;2023-02-14T01:53:11;1002.9;;;5.8;98.8
56272;BME280;42177;48.914;18.160;2023-02-14T01:58:11;1002.9;;;5.8;98.8
56272;BME280;42177;48.914;18.160;2023-02-14T02:03:10;1002.8;;;5.8;98.6
56272;BME280;42177;48.914;18.160;2023-02-14T02:08:10;1002.8;;;5.8;98.6
56272;BME280;42177;48.914;18.160;2023-02-14T02:13:13;1002.7;;;6;98.3
56272;BME280;42177;48.914;18.160;2023-02-14T02:18:13;1002.7;;;6;98.3
56272;BME280;42177;48.914;18.160;2023-02-14T02:23:17;1002.6;;;5.8;98.5
56272;BME280;42177;48.914;18.160;2023-02-14T02:28:17;1002.6;;;5.8;98.5
56272;BME280;42177;48.914;18.160;2023-02-14T02:38:15;1002.6;;;5.8;98.7
56272;BME280;42177;48.914;18.160;2023-02-14T02:43:14;1002.6;;;5.9;97.7
56272;BME280;42177;48.914;18.160;2023-02-14T02:48:13;1002.6;;;5.9;97.7
56272;BME280;42177;48.914;18.160;2023-02-14T02:53:13;1002.6;;;6.1;97.1
56272;BME280;42177;48.914;18.160;2023-02-14T02:58:10;1002.6;;;6.1;97.1
56272;BME280;42177;48.914;18.160;2023-02-14T03:03:10;1002.6;;;6.1;96.4
56272;BME280;42177;48.914;18.160;2023-02-14T03:08:10;1002.6;;;6.1;96.4
56272;BME280;42177;48.914;18.160;2023-02-14T03:13:22;1002.6;;;6;97
56272;BME280;42177;48.914;18.160;2023-02-14T03:18:11;1002.6;;;6;97
56272;BME280;42177;48.914;18.160;2023-02-14T03:23:12;1002.6;;;5.9;96.2
56272;BME280;42177;48.914;18.160;2023-02-14T03:28:11;1002.6;;;5.9;96.2
56272;BME280;42177;48.914;18.160;2023-02-14T03:33:11;1002.7;;;5.9;95.9
56272;BME280;42177;48.914;18.160;2023-02-14T03:38:11;1002.7;;;5.9;95.9
56272;BME280;42177;48.914;18.160;2023-02-14T03:43:11;1002.6;;;6;94.5
56272;BME280;42177;48.914;18.160;2023-02-14T03:48:12;1002.6;;;6;94.5
56272;BME280;42177;48.914;18.160;2023-02-14T03:53:10;1002.5;;;6.1;92.7
56272;BME280;42177;48.914;18.160;2023-02-14T03:58:11;1002.5;;;6.1;92.7
56272;BME280;42177;48.914;18.160;2023-02-14T04:03:10;1002.6;;;6.1;92
56272;BME280;42177;48.914;18.160;2023-02-14T04:08:10;1002.6;;;6.1;92
56272;BME280;42177;48.914;18.160;2023-02-14T04:13:10;1002.6;;;6.1;91.2
56272;BME280;42177;48.914;18.160;2023-02-14T04:18:10;1002.6;;;6.1;91.2
56272;BME280;42177;48.914;18.160;2023-02-14T04:23:10;1002.6;;;6.3;90.2
56272;BME280;42177;48.914;18.160;2023-02-14T04:28:10;1002.6;;;6.3;90.2
56272;BME280;42177;48.914;18.160;2023-02-14T04:33:10;1002.5;;;6.2;89.6
56272;BME280;42177;48.914;18.160;2023-02-14T04:38:10;1002.5;;;6.2;89.6
56272;BME280;42177;48.914;18.160;2023-02-14T04:43:10;1002.4;;;6.2;89.4
56272;BME280;42177;48.914;18.160;2023-02-14T04:48:10;1002.4;;;6.2;89.4
56272;BME280;42177;48.914;18.160;2023-02-14T04:53:10;1002.4;;;6.3;89.3
56272;BME280;42177;48.914;18.160;2023-02-14T04:58:10;1002.4;;;6.3;89.3
56272;BME280;42177;48.914;18.160;2023-02-14T05:03:10;1002.4;;;6.2;90.2
56272;BME280;42177;48.914;18.160;2023-02-14T05:08:10;1002.4;;;6.2;90.2
56272;BME280;42177;48.914;18.160;2023-02-14T05:13:11;1002.4;;;6;90.6
56272;BME280;42177;48.914;18.160;2023-02-14T05:18:10;1002.4;;;6;90.6
56272;BME280;42177;48.914;18.160;2023-02-14T05:23:10;1002.4;;;6;90.9
56272;BME280;42177;48.914;18.160;2023-02-14T05:28:10;1002.4;;;6;90.9
56272;BME280;42177;48.914;18.160;2023-02-14T05:33:10;1002.5;;;6;90.7
56272;BME280;42177;48.914;18.160;2023-02-14T05:38:10;1002.5;;;6;90.7
56272;BME280;42177;48.914;18.160;2023-02-14T05:43:10;1002.6;;;6;90.9
56272;BME280;42177;48.914;18.160;2023-02-14T05:48:10;1002.6;;;6;90.9
56272;BME280;42177;48.914;18.160;2023-02-14T05:53:10;1002.6;;;6;90.3
56272;BME280;42177;48.914;18.160;2023-02-14T05:58:10;1002.6;;;6;90.3
56272;BME280;42177;48.914;18.160;2023-02-14T06:03:10;1002.7;;;5.9;90.6
56272;BME280;42177;48.914;18.160;2023-02-14T06:08:10;1002.7;;;5.9;90.6
56272;BME280;42177;48.914;18.160;2023-02-14T06:13:10;1002.6;;;6.2;89.2
56272;BME280;42177;48.914;18.160;2023-02-14T06:18:10;1002.6;;;6.2;89.2
56272;BME280;42177;48.914;18.160;2023-02-14T06:23:10;1002.8;;;5.9;89.6
56272;BME280;42177;48.914;18.160;2023-02-14T06:28:10;1002.8;;;5.9;89.6
56272;BME280;42177;48.914;18.160;2023-02-14T06:33:10;1002.9;;;6.2;88.7
56272;BME280;42177;48.914;18.160;2023-02-14T06:38:10;1002.9;;;6.2;88.7
56272;BME280;42177;48.914;18.160;2023-02-14T06:43:10;1003;;;6.2;87
56272;BME280;42177;48.914;18.160;2023-02-14T06:48:10;1003;;;6.2;87
56272;BME280;42177;48.914;18.160;2023-02-14T06:53:10;1003;;;6;87.3
56272;BME280;42177;48.914;18.160;2023-02-14T06:58:10;1003;;;6;87.3
56272;BME280;42177;48.914;18.160;2023-02-14T07:03:10;1003.1;;;5.9;87.9
56272;BME280;42177;48.914;18.160;2023-02-14T07:08:10;1003.1;;;5.9;87.9
56272;BME280;42177;48.914;18.160;2023-02-14T07:13:10;1002.9;;;5.9;87.1
56272;BME280;42177;48.914;18.160;2023-02-14T07:18:10;1002.9;;;5.9;87.1
56272;BME280;42177;48.914;18.160;2023-02-14T07:23:10;1002.9;;;6.1;84.7
56272;BME280;42177;48.914;18.160;2023-02-14T07:28:10;1002.9;;;6.1;84.7
56272;BME280;42177;48.914;18.160;2023-02-14T07:33:10;1003;;;6;84.1
56272;BME280;42177;48.914;18.160;2023-02-14T07:38:10;1003;;;6;84.1
56272;BME280;42177;48.914;18.160;2023-02-14T07:43:10;1003;;;5.9;83.8
56272;BME280;42177;48.914;18.160;2023-02-14T07:48:10;1003;;;5.9;83.8
56272;BME280;42177;48.914;18.160;2023-02-14T07:53:10;1003.1;;;6;83.1
56272;BME280;42177;48.914;18.160;2023-02-14T07:58:10;1003.1;;;6;83.1
56272;BME280;42177;48.914;18.160;2023-02-14T08:03:10;1003.1;;;6.1;82.5
56272;BME280;42177;48.914;18.160;2023-02-14T08:08:10;1003.1;;;6.1;82.5
56272;BME280;42177;48.914;18.160;2023-02-14T08:13:10;1003.2;;;6.1;82.1
56272;BME280;42177;48.914;18.160;2023-02-14T08:18:10;1003.2;;;6.1;82.1
56272;BME280;42177;48.914;18.160;2023-02-14T08:23:10;1003.2;;;6.2;82.3
56272;BME280;42177;48.914;18.160;2023-02-14T08:28:10;1003.2;;;6.2;82.3
56272;BME280;42177;48.914;18.160;2023-02-14T08:33:10;1003.3;;;6.3;80.3
56272;BME280;42177;48.914;18.160;2023-02-14T08:38:10;1003.3;;;6.3;80.3
56272;BME280;42177;48.914;18.160;2023-02-14T08:43:10;1003.3;;;6.4;79.3
56272;BME280;42177;48.914;18.160;2023-02-14T08:48:11;1003.3;;;6.4;79.3
56272;BME280;42177;48.914;18.160;2023-02-14T08:53:11;1003.5;;;6.3;78.7
56272;BME280;42177;48.914;18.160;2023-02-14T08:58:10;1003.5;;;6.3;78.7
56272;BME280;42177;48.914;18.160;2023-02-14T09:03:10;1003.5;;;6.4;78.3
56272;BME280;42177;48.914;18.160;2023-02-14T09:08:10;1003.5;;;6.4;78.3
56272;BME280;42177;48.914;18.160;2023-02-14T09:13:10;1003.6;;;6.7;77.4
56272;BME280;42177;48.914;18.160;2023-02-14T09:18:10;1003.6;;;6.7;77.4
56272;BME280;42177;48.914;18.160;2023-02-14T09:23:10;1003.6;;;6.5;76.8
56272;BME280;42177;48.914;18.160;2023-02-14T09:28:10;1003.6;;;6.5;76.8
56272;BME280;42177;48.914;18.160;2023-02-14T09:33:10;1003.7;;;6.6;75.6
56272;BME280;42177;48.914;18.160;2023-02-14T09:38:10;1003.7;;;6.6;75.6
56272;BME280;42177;48.914;18.160;2023-02-14T09:43:11;1003.7;;;6.5;75
56272;BME280;42177;48.914;18.160;2023-02-14T09:48:11;1003.7;;;6.5;75
56272;BME280;42177;48.914;18.160;2023-02-14T09:53:13;1003.8;;;6.6;74.4
56272;BME280;42177;48.914;18.160;2023-02-14T09:58:12;1003.8;;;6.6;74.4
56272;BME280;42177;48.914;18.160;2023-02-14T10:03:15;1003.7;;;6.6;73.6
56272;BME280;42177;48.914;18.160;2023-02-14T10:08:15;1003.7;;;6.6;73.6
56272;BME280;42177;48.914;18.160;2023-02-14T10:13:12;1003.7;;;6.7;73.8
56272;BME280;42177;48.914;18.160;2023-02-14T10:18:12;1003.7;;;6.7;73.8
56272;BME280;42177;48.914;18.160;2023-02-14T10:23:16;1003.7;;;6.6;72.7
56272;BME280;42177;48.914;18.160;2023-02-14T10:28:12;1003.7;;;6.6;72.7
56272;BME280;42177;48.914;18.160;2023-02-14T10:33:12;1003.6;;;6.9;71.6
56272;BME280;42177;48.914;18.160;2023-02-14T10:38:13;1003.6;;;6.9;71.6
56272;BME280;42177;48.914;18.160;2023-02-14T10:43:12;1003.6;;;7;71.8
56272;BME280;42177;48.914;18.160;2023-02-14T10:48:12;1003.6;;;7;71.8
56272;BME280;42177;48.914;18.160;2023-02-14T10:53:12;1003.6;;;7.1;72.1
56272;BME280;42177;48.914;18.160;2023-02-14T10:58:11;1003.6;;;7.1;72.1
56272;BME280;42177;48.914;18.160;2023-02-14T11:03:10;1003.5;;;7.1;71.7
56272;BME280;42177;48.914;18.160;2023-02-14T11:08:12;1003.5;;;7.1;71.7
56272;BME280;42177;48.914;18.160;2023-02-14T11:13:25;1003.4;;;7.2;71
56272;BME280;42177;48.914;18.160;2023-02-14T11:18:15;1003.4;;;7.2;71
56272;BME280;42177;48.914;18.160;2023-02-14T11:23:19;1003.4;;;7.5;69.2
56272;BME280;42177;48.914;18.160;2023-02-14T11:28:12;1003.4;;;7.5;69.2
56272;BME280;42177;48.914;18.160;2023-02-14T11:33:10;1003.2;;;7.7;68
56272;BME280;42177;48.914;18.160;2023-02-14T11:38:27;1003.2;;;7.7;68
56272;BME280;42177;48.914;18.160;2023-02-14T11:43:18;1003.2;;;8.2;66.8
56272;BME280;42177;48.914;18.160;2023-02-14T11:48:15;1003.2;;;8.2;66.8
56272;BME280;42177;48.914;18.160;2023-02-14T11:53:10;1003.2;;;8.9;60.6
56272;BME280;42177;48.914;18.160;2023-02-14T11:58:16;1003.2;;;8.9;60.6
56272;BME280;42177;48.914;18.160;2023-02-14T12:03:14;1003.2;;;8.7;59.9
56272;BME280;42177;48.914;18.160;2023-02-14T12:08:10;1003.2;;;8.7;59.9
56272;BME280;42177;48.914;18.160;2023-02-14T12:13:19;1003.1;;;8.7;59.9
56272;BME280;42177;48.914;18.160;2023-02-14T12:18:16;1003.1;;;8.7;59.9
56272;BME280;42177;48.914;18.160;2023-02-14T12:23:13;1003;;;9;58.5
56272;BME280;42177;48.914;18.160;2023-02-14T12:28:11;1003;;;9;58.5
56272;BME280;42177;48.914;18.160;2023-02-14T12:33:13;1002.9;;;8.1;61.4
56272;BME280;42177;48.914;18.160;2023-02-14T12:38:12;1002.9;;;8.1;61.4
56272;BME280;42177;48.914;18.160;2023-02-14T12:43:17;1002.9;;;9.2;57.9
56272;BME280;42177;48.914;18.160;2023-02-14T12:48:12;1002.9;;;9.2;57.9
56272;BME280;42177;48.914;18.160;2023-02-14T12:53:21;1002.8;;;9.2;58.4
56272;BME280;42177;48.914;18.160;2023-02-14T12:58:13;1002.8;;;9.2;58.4
56272;BME280;42177;48.914;18.160;2023-02-14T13:03:23;1002.7;;;10.4;55.4
56272;BME280;42177;48.914;18.160;2023-02-14T13:08:15;1002.7;;;10.4;55.4
56272;BME280;42177;48.914;18.160;2023-02-14T13:13:13;1002.7;;;11.2;51.2
56272;BME280;42177;48.914;18.160;2023-02-14T13:18:11;1002.7;;;11.2;51.2
56272;BME280;42177;48.914;18.160;2023-02-14T13:23:12;1002.6;;;10.9;50.4
56272;BME280;42177;48.914;18.160;2023-02-14T13:28:11;1002.6;;;10.9;50.4
56272;BME280;42177;48.914;18.160;2023-02-14T13:33:18;1002.7;;;11.8;49.2
56272;BME280;42177;48.914;18.160;2023-02-14T13:38:11;1002.7;;;11.8;49.2
56272;BME280;42177;48.914;18.160;2023-02-14T13:43:10;1002.7;;;11.6;50.3
56272;BME280;42177;48.914;18.160;2023-02-14T13:48:11;1002.7;;;11.6;50.3
56272;BME280;42177;48.914;18.160;2023-02-14T13:53:10;1002.6;;;11.1;49.7
56272;BME280;42177;48.914;18.160;2023-02-14T13:58:14;1002.6;;;11.1;49.7
56272;BME280;42177;48.914;18.160;2023-02-14T14:03:11;1002.6;;;11.3;48.5
56272;BME280;42177;48.914;18.160;2023-02-14T14:08:44;1002.6;;;11.3;48.5
56272;BME280;42177;48.914;18.160;2023-02-14T14:13:21;1002.5;;;12.6;46.4
56272;BME280;42177;48.914;18.160;2023-02-14T14:18:42;1002.5;;;12.6;46.4
56272;BME280;42177;48.914;18.160;2023-02-14T14:23:44;1002.4;;;13.4;44.9
56272;BME280;42177;48.914;18.160;2023-02-14T14:28:10;1002.4;;;13.4;44.9
56272;BME280;42177;48.914;18.160;2023-02-14T14:33:11;1002.5;;;11.7;47.8
56272;BME280;42177;48.914;18.160;2023-02-14T14:38:11;1002.5;;;11.7;47.8
56272;BME280;42177;48.914;18.160;2023-02-14T14:43:11;1002.4;;;10.4;57.1
56272;BME280;42177;48.914;18.160;2023-02-14T14:48:11;1002.4;;;10.4;57.1
56272;BME280;42177;48.914;18.160;2023-02-14T14:53:16;1002.5;;;9.2;56.8
56272;BME280;42177;48.914;18.160;2023-02-14T14:58:29;1002.5;;;9.2;56.8
56272;BME280;42177;48.914;18.160;2023-02-14T15:03:13;1002.5;;;8;61.7
56272;BME280;42177;48.914;18.160;2023-02-14T15:08:12;1002.5;;;8;61.7
56272;BME280;42177;48.914;18.160;2023-02-14T15:13:11;1002.4;;;7.7;63.2
56272;BME280;42177;48.914;18.160;2023-02-14T15:18:10;1002.4;;;7.7;63.2
56272;BME280;42177;48.914;18.160;2023-02-14T15:23:14;1002.3;;;8;63
56272;BME280;42177;48.914;18.160;2023-02-14T15:28:11;1002.3;;;8;63
56272;BME280;42177;48.914;18.160;2023-02-14T15:33:10;1002.4;;;7.8;62.7
56272;BME280;42177;48.914;18.160;2023-02-14T15:38:10;1002.4;;;7.8;62.7
56272;BME280;42177;48.914;18.160;2023-02-14T15:43:13;1002.5;;;8;62.6
56272;BME280;42177;48.914;18.160;2023-02-14T15:48:11;1002.5;;;8;62.6
56272;BME280;42177;48.914;18.160;2023-02-14T15:53:19;1002.4;;;7.7;64.4
56272;BME280;42177;48.914;18.160;2023-02-14T15:58:13;1002.4;;;7.7;64.4
56272;BME280;42177;48.914;18.160;2023-02-14T16:03:11;1002.4;;;7.9;63.7
56272;BME280;42177;48.914;18.160;2023-02-14T16:08:22;1002.4;;;7.9;63.7
56272;BME280;42177;48.914;18.160;2023-02-14T16:13:16;1002.4;;;7.4;65.7
56272;BME280;42177;48.914;18.160;2023-02-14T16:18:30;1002.4;;;7.4;65.7
56272;BME280;42177;48.914;18.160;2023-02-14T16:23:27;1002.5;;;7;67.9
56272;BME280;42177;48.914;18.160;2023-02-14T16:28:10;1002.5;;;7;67.9
56272;BME280;42177;48.914;18.160;2023-02-14T16:33:12;1002.6;;;7;67.9
56272;BME280;42177;48.914;18.160;2023-02-14T16:38:11;1002.6;;;7;67.9
56272;BME280;42177;48.914;18.160;2023-02-14T16:43:11;1002.7;;;7.1;68
56272;BME280;42177;48.914;18.160;2023-02-14T16:48:10;1002.7;;;7.1;68
56272;BME280;42177;48.914;18.160;2023-02-14T16:53:11;1002.8;;;6.7;69.2
56272;BME280;42177;48.914;18.160;2023-02-14T16:58:10;1002.8;;;6.7;69.2
56272;BME280;42177;48.914;18.160;2023-02-14T17:03:10;1002.9;;;6.6;70.3
56272;BME280;42177;48.914;18.160;2023-02-14T17:08:11;1002.9;;;6.6;70.3
56272;BME280;42177;48.914;18.160;2023-02-14T17:13:10;1003;;;6.3;71.8
56272;BME280;42177;48.914;18.160;2023-02-14T17:18:11;1003;;;6.3;71.8
56272;BME280;42177;48.914;18.160;2023-02-14T17:23:10;1003;;;6.2;72.4
56272;BME280;42177;48.914;18.160;2023-02-14T17:28:10;1003;;;6.2;72.4
56272;BME280;42177;48.914;18.160;2023-02-14T17:33:10;1002.9;;;6.4;71.7
56272;BME280;42177;48.914;18.160;2023-02-14T17:38:10;1002.9;;;6.4;71.7
56272;BME280;42177;48.914;18.160;2023-02-14T17:43:10;1002.9;;;5.7;75
56272;BME280;42177;48.914;18.160;2023-02-14T17:48:10;1002.9;;;5.7;75
56272;BME280;42177;48.914;18.160;2023-02-14T17:53:10;1003;;;5.8;73.4
56272;BME280;42177;48.914;18.160;2023-02-14T17:58:10;1003;;;5.8;73.4
56272;BME280;42177;48.914;18.160;2023-02-14T18:03:10;1003;;;5.5;74.6
56272;BME280;42177;48.914;18.160;2023-02-14T18:08:10;1003;;;5.5;74.6
56272;BME280;42177;48.914;18.160;2023-02-14T18:13:10;1002.8;;;5.2;75.2
56272;BME280;42177;48.914;18.160;2023-02-14T18:18:10;1002.8;;;5.2;75.2
56272;BME280;42177;48.914;18.160;2023-02-14T18:23:10;1002.8;;;5.2;75.7
56272;BME280;42177;48.914;18.160;2023-02-14T18:28:10;1002.8;;;5.2;75.7
56272;BME280;42177;48.914;18.160;2023-02-14T18:33:10;1002.7;;;4.9;77.5
56272;BME280;42177;48.914;18.160;2023-02-14T18:38:11;1002.7;;;4.9;77.5
56272;BME280;42177;48.914;18.160;2023-02-14T18:43:10;1002.7;;;5;77.1
56272;BME280;42177;48.914;18.160;2023-02-14T18:48:10;1002.7;;;5;77.1
56272;BME280;42177;48.914;18.160;2023-02-14T18:53:10;1002.8;;;4.9;77.9
56272;BME280;42177;48.914;18.160;2023-02-14T18:58:10;1002.8;;;4.9;77.9
56272;BME280;42177;48.914;18.160;2023-02-14T19:03:10;1002.6;;;4.8;78.5
56272;BME280;42177;48.914;18.160;2023-02-14T19:08:10;1002.6;;;4.8;78.5
56272;BME280;42177;48.914;18.160;2023-02-14T19:13:10;1002.6;;;4.5;80.3
56272;BME280;42177;48.914;18.160;2023-02-14T19:18:10;1002.6;;;4.5;80.3
56272;BME280;42177;48.914;18.160;2023-02-14T19:23:10;1002.6;;;4.2;81
56272;BME280;42177;48.914;18.160;2023-02-14T19:28:10;1002.6;;;4.2;81
56272;BME280;42177;48.914;18.160;2023-02-14T19:33:10;1002.7;;;4.5;81.2
56272;BME280;42177;48.914;18.160;2023-02-14T19:38:10;1002.7;;;4.5;81.2
56272;BME280;42177;48.914;18.160;2023-02-14T19:43:10;1002.6;;;4.2;81.5
56272;BME280;42177;48.914;18.160;2023-02-14T19:48:10;1002.6;;;4.2;81.5
56272;BME280;42177;48.914;18.160;2023-02-14T19:53:10;1002.5;;;3.8;83.4
56272;BME280;42177;48.914;18.160;2023-02-14T19:58:11;1002.5;;;3.8;83.4
56272;BME280;42177;48.914;18.160;2023-02-14T20:03:10;1002.5;;;4;82.5
56272;BME280;42177;48.914;18.160;2023-02-14T20:08:10;1002.5;;;4;82.5
56272;BME280;42177;48.914;18.160;2023-02-14T20:13:10;1002.5;;;3.8;84
56272;BME280;42177;48.914;18.160;2023-02-14T20:18:10;1002.5;;;3.8;84
56272;BME280;42177;48.914;18.160;2023-02-14T20:23:10;1002.5;;;3.6;84.2
56272;BME280;42177;48.914;18.160;2023-02-14T20:28:10;1002.5;;;3.6;84.2
56272;BME280;42177;48.914;18.160;2023-02-14T20:33:10;1002.5;;;3.8;83.8
56272;BME280;42177;48.914;18.160;2023-02-14T20:38:10;1002.5;;;3.8;83.8
56272;BME280;42177;48.914;18.160;2023-02-14T20:43:10;1002.5;;;3.7;84.2
56272;BME280;42177;48.914;18.160;2023-02-14T20:48:10;1002.5;;;3.7;84.2
56272;BME280;42177;48.914;18.160;2023-02-14T20:53:10;1002.4;;;3.5;85.3
56272;BME280;42177;48.914;18.160;2023-02-14T20:58:10;1002.4;;;3.5;85.3
56272;BME280;42177;48.914;18.160;2023-02-14T21:03:10;1002.5;;;3.9;84.2
56272;BME280;42177;48.914;18.160;2023-02-14T21:08:10;1002.5;;;3.9;84.2
56272;BME280;42177;48.914;18.160;2023-02-14T21:13:10;1002.5;;;3.5;84.8
56272;BME280;42177;48.914;18.160;2023-02-14T21:18:10;1002.5;;;3.5;84.8
56272;BME280;42177;48.914;18.160;2023-02-14T21:23:11;1002.4;;;3.3;87.1
56272;BME280;42177;48.914;18.160;2023-02-14T21:28:10;1002.4;;;3.3;87.1
56272;BME280;42177;48.914;18.160;2023-02-14T21:33:10;1002.4;;;3.2;85.7
56272;BME280;42177;48.914;18.160;2023-02-14T21:38:10;1002.4;;;3.2;85.7
56272;BME280;42177;48.914;18.160;2023-02-14T21:43:10;1002.1;;;3.1;87.6
56272;BME280;42177;48.914;18.160;2023-02-14T21:48:10;1002.1;;;3.1;87.6
56272;BME280;42177;48.914;18.160;2023-02-14T21:53:10;1002.3;;;3.6;86.2
56272;BME280;42177;48.914;18.160;2023-02-14T21:58:10;1002.3;;;3.6;86.2
56272;BME280;42177;48.914;18.160;2023-02-14T22:03:10;1002.1;;;3.1;86.8
56272;BME280;42177;48.914;18.160;2023-02-14T22:08:10;1002.1;;;3.1;86.8
56272;BME280;42177;48.914;18.160;2023-02-14T22:13:10;1002.1;;;3.1;87
56272;BME280;42177;48.914;18.160;2023-02-14T22:18:10;1002.1;;;3.1;87
56272;BME280;42177;48.914;18.160;2023-02-14T22:23:10;1002.1;;;2.9;88
56272;BME280;42177;48.914;18.160;2023-02-14T22:28:10;1002.1;;;2.9;88
56272;BME280;42177;48.914;18.160;2023-02-14T22:33:10;1002.1;;;2.7;88.6
56272;BME280;42177;48.914;18.160;2023-02-14T22:38:10;1002.1;;;2.7;88.6
56272;BME280;42177;48.914;18.160;2023-02-14T22:43:10;1002.1;;;3;87.5
56272;BME280;42177;48.914;18.160;2023-02-14T22:48:10;1002.1;;;3;87.5
56272;BME280;42177;48.914;18.160;2023-02-14T22:53:10;1002;;;2.9;88.3
56272;BME280;42177;48.914;18.160;2023-02-14T22:58:10;1002;;;2.9;88.3
56272;BME280;42177;48.914;18.160;2023-02-14T23:03:10;1002;;;3;87.3
56272;BME280;42177;48.914;18.160;2023-02-14T23:08:10;1002;;;3;87.3
56272;BME280;42177;48.914;18.160;2023-02-14T23:13:10;1002;;;2.8;88.4
56272;BME280;42177;48.914;18.160;2023-02-14T23:18:11;1002;;;2.8;88.4
56272;BME280;42177;48.914;18.160;2023-02-14T23:23:10;1001.9;;;2.7;87.7
56272;BME280;42177;48.914;18.160;2023-02-14T23:28:10;1001.9;;;2.7;87.7
56272;BME280;42177;48.914;18.160;2023-02-14T23:33:10;1001.9;;;2.6;88.8
56272;BME280;42177;48.914;18.160;2023-02-14T23:38:10;1001.9;;;2.6;88.8
56272;BME280;42177;48.914;18.160;2023-02-14T23:43:10;1001.8;;;2.6;87.8
56272;BME280;42177;48.914;18.160;2023-02-14T23:48:10;1001.8;;;2.6;87.8
56272;BME280;42177;48.914;18.160;2023-02-14T23:53:10;1001.9;;;2.4;89
56272;BME280;42177;48.914;18.160;2023-02-14T23:58:10;1001.9;;;2.4;89
